Elizabeth R — WDG5460 — position and weather

sailwx.info

Track history (hours):
 
Tides and Currents Weather Stations Pressure Air Temp Water Temp Dewpoint Dewpoint Depression Visibility Wind Speed Wind Dir Waves Ship Positions

Elizabeth R

Owner: Kirby Inland Marine LP, Houston, TX. More information available from US FCC via Universal Licensing System and Coast Guard Vessel Documentation Center.

Last reported at 2018-Feb-22 23:00 UTC. Time now 2018-Feb-22 23:01 UTC.
Position N 30°04' W 094°03'.

Length 120 m; draft 2.7 m.

Type: . MMSI: 367546910.

Date/timePositionNaut miles runAvg speedWind from/ knotsBaromVisibWave heightAir tempDewpointWater temp
2018-Feb-22 23:00N 30°04' W 094°03'0 0.0
2018-Feb-22 22:30N 30°04' W 094°03'0 0.0
2018-Feb-22 22:00N 30°04' W 094°03'0 0.0
2018-Feb-22 21:30N 30°04' W 094°03'0 0.0
2018-Feb-22 21:00N 30°04' W 094°03'0 0.0
2018-Feb-22 20:30N 30°04' W 094°03'0 0.0
2018-Feb-22 20:00N 30°04' W 094°03'0 0.0
2018-Feb-22 19:30N 30°04' W 094°03'0 0.0
2018-Feb-22 19:00N 30°04' W 094°03'0 0.0
2018-Feb-22 18:30N 30°04' W 094°03'0 0.0
2018-Feb-22 18:00N 30°04' W 094°03'0 0.0
2018-Feb-22 17:30N 30°04' W 094°03'1 1.4
2018-Feb-22 16:58N 30°04' W 094°03'0 0.0
2018-Feb-22 16:28N 30°04' W 094°03'0 0.0
2018-Feb-22 15:58N 30°04' W 094°03'0 0.0
2018-Feb-22 15:30N 30°04' W 094°03'1 1.4
2018-Feb-22 14:58N 30°04' W 094°03'0 0.0
2018-Feb-22 14:28N 30°04' W 094°03'0 0.0
2018-Feb-22 13:58N 30°04' W 094°03'0 0.0
2018-Feb-22 13:28N 30°04' W 094°03'0 0.0
2018-Feb-22 12:58N 30°04' W 094°03'0 0.0
2018-Feb-22 12:28N 30°04' W 094°03'0 0.0
2018-Feb-22 11:58N 30°04' W 094°03'0 0.0
2018-Feb-22 11:28N 30°04' W 094°03'0 0.0
2018-Feb-22 10:58N 30°04' W 094°03'0 0.0
2018-Feb-22 10:28N 30°04' W 094°03'0 0.0
2018-Feb-22 09:58N 30°04' W 094°03'0 0.0
2018-Feb-22 09:28N 30°04' W 094°03'0 1.0
2018-Feb-22 09:00N 30°04' W 094°03'3 5.3
2018-Feb-22 08:30N 30°01' W 094°02'3 6.1
2018-Feb-22 08:00N 30°01' W 093°58'3 5.4
2018-Feb-22 07:30N 29°59' W 093°55'3 6.2
2018-Feb-22 07:01N 29°59' W 093°52'3 5.4
2018-Feb-22 06:30N 29°56' W 093°52'3 6.0
2018-Feb-22 06:00N 29°54' W 093°54'3 6.0
2018-Feb-22 05:30N 29°51' W 093°56'3 5.6
2018-Feb-22 05:00N 29°49' W 093°59'1 1.2
2018-Feb-22 04:30N 29°49' W 093°59'1 3.0
2018-Feb-22 04:00N 29°48' W 094°00'3 6.3
2018-Feb-22 03:31N 29°46' W 094°03'3 6.3
2018-Feb-22 03:00N 29°44' W 094°06'3 6.1
2018-Feb-22 02:30N 29°42' W 094°09'3 6.0
2018-Feb-22 02:01N 29°41' W 094°12'3 5.4
2018-Feb-22 01:30N 29°40' W 094°15'3 5.8
2018-Feb-22 01:00N 29°38' W 094°18'3 5.7
2018-Feb-22 00:30N 29°37' W 094°21'4 5.7
2018-Feb-21 23:52N 29°36' W 094°24'1 0.8
2018-Feb-21 22:01N 29°34' W 094°25'0 0.6
2018-Feb-21 21:53N 29°34' W 094°25'29 4.0
2018-Feb-21 14:35N 29°38' W 094°58'1 7.6
2018-Feb-21 14:30N 29°39' W 094°58'4 7.1
2018-Feb-21 14:00N 29°42' W 095°00'6 0.5
2018-Feb-21 03:11N 29°46' W 095°05'4 0.1
2018-Feb-19 18:47N 29°44' W 095°02'1 4.7
2018-Feb-19 18:30N 29°42' W 095°01'2 4.4
2018-Feb-19 18:00N 29°41' W 094°59'1 1.6
2018-Feb-19 17:30N 29°41' W 094°60'1 1.9
2018-Feb-19 17:00N 29°41' W 094°59'3 6.0
2018-Feb-19 16:30N 29°38' W 094°58'3 6.2
2018-Feb-19 15:58N 29°35' W 094°56'3 6.2
2018-Feb-19 15:30N 29°33' W 094°54'3 6.5
2018-Feb-19 14:59N 29°30' W 094°52'3 6.6
2018-Feb-19 14:29N 29°27' W 094°50'3 7.1
2018-Feb-19 14:00N 29°24' W 094°49'6 1.6
2018-Feb-19 10:37N 29°26' W 094°43'0 0.0
2018-Feb-19 10:22N 29°26' W 094°43'0 0.0
2018-Feb-19 09:34N 29°26' W 094°43'0 0.0
2018-Feb-19 09:30N 29°26' W 094°43'0 0.0
2018-Feb-19 08:57N 29°26' W 094°43'0 0.0
2018-Feb-19 08:24N 29°26' W 094°43'0 0.0
2018-Feb-19 07:58N 29°26' W 094°43'0 0.0
2018-Feb-19 07:30N 29°26' W 094°43'0 0.0
2018-Feb-19 06:45N 29°26' W 094°43'0 0.0
2018-Feb-19 05:34N 29°26' W 094°43'0 0.0
2018-Feb-19 05:25N 29°26' W 094°43'0 0.0
2018-Feb-19 05:00N 29°26' W 094°43'0 0.0
2018-Feb-18 07:48N 29°26' W 094°43'0 0.0
2018-Feb-18 07:30N 29°26' W 094°43'14 0.6
2018-Feb-17 08:52N 29°32' W 094°29'0 0.0
2018-Feb-17 08:28N 29°32' W 094°29'0 0.0
2018-Feb-17 06:58N 29°32' W 094°29'0 0.0
2018-Feb-17 06:13N 29°32' W 094°29'0 0.0
2018-Feb-17 05:39N 29°32' W 094°29'0 0.0
2018-Feb-17 05:23N 29°32' W 094°29'0 0.0
2018-Feb-17 05:00N 29°32' W 094°29'0 0.0
2018-Feb-17 04:27N 29°32' W 094°29'0 0.0
2018-Feb-17 03:44N 29°32' W 094°29'0 0.0
2018-Feb-17 03:25N 29°32' W 094°29'0 0.0
2018-Feb-17 02:56N 29°32' W 094°29'0 0.0
2018-Feb-17 02:24N 29°32' W 094°29'0 0.0
2018-Feb-17 01:58N 29°32' W 094°29'0 0.0
2018-Feb-17 01:30N 29°32' W 094°29'0 0.0
2018-Feb-17 00:59N 29°32' W 094°29'0 0.0
2018-Feb-17 00:30N 29°32' W 094°29'0 0.2
2018-Feb-16 23:53N 29°33' W 094°29'2 2.1
2018-Feb-16 23:07N 29°34' W 094°27'1 5.2
2018-Feb-16 23:00N 29°34' W 094°27'0 0.6
2018-Feb-16 22:30N 29°34' W 094°26'1 1.2
2018-Feb-16 22:00N 29°34' W 094°26'0 0.2
2018-Feb-16 21:30N 29°34' W 094°26'2 3.4
2018-Feb-16 20:55N 29°36' W 094°25'2 4.4
2018-Feb-16 20:23N 29°36' W 094°22'1 2.1
2018-Feb-16 19:59N 29°37' W 094°21'3 5.2
2018-Feb-16 19:30N 29°38' W 094°19'3 5.2
2018-Feb-16 19:00N 29°39' W 094°16'3 5.1
2018-Feb-16 18:31N 29°40' W 094°13'3 5.0
2018-Feb-16 18:00N 29°41' W 094°11'2 4.7
2018-Feb-16 17:30N 29°42' W 094°08'2 4.8
2018-Feb-16 17:00N 29°44' W 094°06'2 4.8
2018-Feb-16 16:30N 29°45' W 094°04'2 4.8
2018-Feb-16 16:00N 29°47' W 094°02'2 4.7
2018-Feb-16 15:30N 29°49' W 093°60'1 1.8
2018-Feb-16 15:00N 29°49' W 093°59'0 0.0
2018-Feb-16 14:30N 29°49' W 093°59'0 0.0
2018-Feb-16 14:00N 29°49' W 093°59'0 0.0
2018-Feb-16 13:30N 29°49' W 093°59'0 0.0
2018-Feb-16 13:00N 29°49' W 093°59'2 2.9
2018-Feb-16 12:29N 29°50' W 093°58'1 3.1
2018-Feb-16 12:00N 29°49' W 093°59'0 0.0
2018-Feb-16 11:30N 29°49' W 093°59'0 0.0
2018-Feb-16 11:00N 29°49' W 093°59'0 0.0
2018-Feb-16 10:30N 29°49' W 093°59'0 0.0
2018-Feb-16 10:00N 29°49' W 093°59'0 0.0
2018-Feb-16 09:30N 29°49' W 093°59'0 0.0
2018-Feb-16 09:00N 29°49' W 093°59'0 0.0
2018-Feb-16 08:30N 29°49' W 093°59'0 0.0
2018-Feb-16 08:00N 29°49' W 093°59'0 0.0
2018-Feb-16 07:30N 29°49' W 093°59'0 0.0
2018-Feb-16 07:00N 29°49' W 093°59'0 0.0
2018-Feb-16 06:30N 29°49' W 093°59'0 0.0
2018-Feb-16 06:00N 29°49' W 093°59'0 0.0
2018-Feb-16 05:30N 29°49' W 093°59'0 0.0
2018-Feb-16 04:54N 29°49' W 093°59'0 0.0
2018-Feb-16 04:30N 29°49' W 093°59'0 0.0
2018-Feb-16 04:00N 29°49' W 093°59'0 0.0
2018-Feb-16 03:30N 29°49' W 093°59'0 0.0
2018-Feb-16 03:00N 29°49' W 093°59'0 0.0
2018-Feb-16 02:30N 29°49' W 093°59'0 0.0
2018-Feb-16 02:00N 29°49' W 093°59'0 0.0
2018-Feb-16 01:30N 29°49' W 093°59'0 0.0
2018-Feb-16 01:00N 29°49' W 093°59'0 0.0
2018-Feb-16 00:30N 29°49' W 093°59'0 0.0
2018-Feb-16 00:00N 29°49' W 093°59'0 0.0
2018-Feb-15 23:30N 29°49' W 093°59'0 0.0
2018-Feb-15 23:00N 29°49' W 093°59'0 0.0
2018-Feb-15 22:30N 29°49' W 093°59'0 0.0
2018-Feb-15 22:00N 29°49' W 093°59'0 0.0
2018-Feb-15 21:31N 29°49' W 093°59'1 1.8
2018-Feb-15 21:00N 29°49' W 093°58'1 1.5
2018-Feb-15 20:30N 29°50' W 093°58'0 0.0
2018-Feb-15 20:00N 29°50' W 093°58'0 0.0
2018-Feb-15 19:30N 29°50' W 093°58'1 3.1
2018-Feb-15 19:01N 29°49' W 093°59'0 0.1
2018-Feb-15 18:30N 29°49' W 093°59'0 0.0
2018-Feb-15 18:00N 29°49' W 093°59'0 0.0
2018-Feb-15 17:30N 29°49' W 093°59'0 0.9
2018-Feb-15 17:00N 29°49' W 093°59'0 0.5
2018-Feb-15 16:30N 29°49' W 093°60'0 0.0
2018-Feb-15 16:00N 29°49' W 093°60'0 0.0
2018-Feb-15 15:30N 29°49' W 093°60'0 0.0
2018-Feb-15 15:00N 29°49' W 093°60'0 0.0
2018-Feb-15 14:30N 29°49' W 093°60'0 0.5
2018-Feb-15 14:00N 29°49' W 093°60'0 0.6
2018-Feb-15 13:30N 29°49' W 093°60'0 0.2
2018-Feb-15 13:00N 29°49' W 093°60'0 0.0
2018-Feb-15 12:30N 29°49' W 093°60'0 0.0
2018-Feb-15 12:00N 29°49' W 093°60'0 0.0
2018-Feb-15 11:30N 29°49' W 093°60'0 0.0
2018-Feb-15 11:00N 29°49' W 093°60'0 0.0
2018-Feb-15 10:30N 29°49' W 093°60'0 0.0
2018-Feb-15 10:00N 29°49' W 093°60'0 0.1
2018-Feb-15 09:30N 29°49' W 093°60'0 0.0
2018-Feb-15 09:00N 29°49' W 093°60'0 0.0
2018-Feb-15 08:30N 29°49' W 093°60'0 0.0
2018-Feb-15 08:00N 29°49' W 093°60'0 0.0
2018-Feb-15 07:30N 29°49' W 093°60'0 0.0
2018-Feb-15 07:00N 29°49' W 093°60'0 0.0
2018-Feb-15 06:30N 29°49' W 093°60'0 0.0
2018-Feb-15 06:00N 29°49' W 093°60'0 0.0
2018-Feb-15 05:30N 29°49' W 093°60'0 0.0
2018-Feb-15 05:00N 29°49' W 093°60'0 0.0
2018-Feb-15 04:30N 29°49' W 093°60'0 0.0
2018-Feb-15 04:00N 29°49' W 093°60'0 0.0
2018-Feb-15 03:30N 29°49' W 093°60'0 0.0
2018-Feb-15 03:00N 29°49' W 093°60'0 0.0
2018-Feb-15 02:30N 29°49' W 093°60'0 0.1
2018-Feb-15 02:00N 29°49' W 093°60'0 0.0
2018-Feb-15 01:30N 29°49' W 093°60'0 0.0
2018-Feb-15 01:00N 29°49' W 093°60'0 0.1
2018-Feb-15 00:30N 29°49' W 093°60'0 0.2
2018-Feb-15 00:00N 29°49' W 093°60'2 3.8
2018-Feb-14 23:30N 29°49' W 093°58'3 6.0
2018-Feb-14 23:00N 29°52' W 093°56'3 5.7
2018-Feb-14 22:30N 29°54' W 093°54'3 5.8
2018-Feb-14 22:00N 29°57' W 093°52'2 4.7
2018-Feb-14 21:30N 29°58' W 093°50'3 6.0
2018-Feb-14 21:00N 29°60' W 093°47'3 5.8
2018-Feb-14 20:30N 30°01' W 093°45'3 5.3
2018-Feb-14 20:00N 30°03' W 093°42'3 5.4
2018-Feb-14 19:30N 30°04' W 093°39'3 5.3
2018-Feb-14 18:59N 30°04' W 093°36'2 4.5
2018-Feb-14 18:30N 30°04' W 093°34'1 1.7
2018-Feb-14 18:00N 30°04' W 093°33'0 0.0
2018-Feb-14 17:30N 30°04' W 093°33'0 0.0
2018-Feb-14 17:00N 30°04' W 093°33'0 0.0
2018-Feb-14 16:30N 30°04' W 093°33'0 0.0
2018-Feb-14 15:57N 30°04' W 093°33'0 0.0
2018-Feb-14 15:30N 30°04' W 093°33'0 0.0
2018-Feb-14 15:00N 30°04' W 093°33'0 0.0
2018-Feb-14 14:30N 30°04' W 093°33'0 0.3
2018-Feb-14 14:00N 30°04' W 093°33'0 0.3
2018-Feb-14 13:30N 30°04' W 093°33'0 0.1
2018-Feb-14 13:00N 30°04' W 093°33'0 0.0
2018-Feb-14 12:30N 30°04' W 093°33'0 0.0
2018-Feb-14 12:00N 30°04' W 093°33'0 0.1
2018-Feb-14 11:30N 30°04' W 093°33'0 0.0
2018-Feb-14 11:00N 30°04' W 093°33'0 0.0
2018-Feb-14 10:30N 30°04' W 093°33'0 0.1
2018-Feb-14 09:59N 30°04' W 093°33'0 0.6
2018-Feb-14 09:30N 30°04' W 093°33'2 4.7
2018-Feb-14 09:00N 30°04' W 093°30'2 4.8
2018-Feb-14 08:30N 30°04' W 093°27'2 4.8
2018-Feb-14 08:00N 30°04' W 093°24'2 4.3
2018-Feb-14 07:30N 30°04' W 093°22'2 3.3
2018-Feb-14 07:00N 30°05' W 093°20'2 3.4
2018-Feb-14 06:30N 30°06' W 093°19'1 2.9
2018-Feb-14 06:00N 30°05' W 093°18'1 1.8
2018-Feb-14 05:30N 30°05' W 093°17'0 0.5
2018-Feb-14 05:00N 30°05' W 093°16'0 0.0
2018-Feb-14 04:30N 30°05' W 093°17'1 2.2
2018-Feb-14 04:00N 30°04' W 093°16'2 3.8
2018-Feb-14 03:30N 30°02' W 093°15'2 4.0
2018-Feb-14 03:00N 30°00' W 093°14'2 4.4
2018-Feb-14 02:30N 29°59' W 093°12'2 4.6
2018-Feb-14 02:00N 29°57' W 093°10'2 4.3
2018-Feb-14 01:29N 29°56' W 093°08'2 4.8
2018-Feb-14 01:00N 29°56' W 093°05'  
Track history (hours):
 
Tides and Currents Weather Stations Pressure Air Temp Water Temp Dewpoint Dewpoint Depression Visibility Wind Speed Wind Dir Waves Ship Positions

Elizabeth R

Owner: Kirby Inland Marine LP, Houston, TX. More information available from US FCC via Universal Licensing System and Coast Guard Vessel Documentation Center.

Last reported at 2018-Feb-22 23:00 UTC. Time now 2018-Feb-22 23:01 UTC.
Position N 30°04' W 094°03'.

Length 120 m; draft 2.7 m.

Type: . MMSI: 367546910.

Date/timePositionNaut miles runAvg speedWind from/ knotsBaromVisibWave heightAir tempDewpointWater temp
2018-Feb-22 23:00N 30°04' W 094°03'0 0.0
2018-Feb-22 22:30N 30°04' W 094°03'0 0.0
2018-Feb-22 22:00N 30°04' W 094°03'0 0.0
2018-Feb-22 21:30N 30°04' W 094°03'0 0.0
2018-Feb-22 21:00N 30°04' W 094°03'0 0.0
2018-Feb-22 20:30N 30°04' W 094°03'0 0.0
2018-Feb-22 20:00N 30°04' W 094°03'0 0.0
2018-Feb-22 19:30N 30°04' W 094°03'0 0.0
2018-Feb-22 19:00N 30°04' W 094°03'0 0.0
2018-Feb-22 18:30N 30°04' W 094°03'0 0.0
2018-Feb-22 18:00N 30°04' W 094°03'0 0.0
2018-Feb-22 17:30N 30°04' W 094°03'1 1.4
2018-Feb-22 16:58N 30°04' W 094°03'0 0.0
2018-Feb-22 16:28N 30°04' W 094°03'0 0.0
2018-Feb-22 15:58N 30°04' W 094°03'0 0.0
2018-Feb-22 15:30N 30°04' W 094°03'1 1.4
2018-Feb-22 14:58N 30°04' W 094°03'0 0.0
2018-Feb-22 14:28N 30°04' W 094°03'0 0.0
2018-Feb-22 13:58N 30°04' W 094°03'0 0.0
2018-Feb-22 13:28N 30°04' W 094°03'0 0.0
2018-Feb-22 12:58N 30°04' W 094°03'0 0.0
2018-Feb-22 12:28N 30°04' W 094°03'0 0.0
2018-Feb-22 11:58N 30°04' W 094°03'0 0.0
2018-Feb-22 11:28N 30°04' W 094°03'0 0.0
2018-Feb-22 10:58N 30°04' W 094°03'0 0.0
2018-Feb-22 10:28N 30°04' W 094°03'0 0.0
2018-Feb-22 09:58N 30°04' W 094°03'0 0.0
2018-Feb-22 09:28N 30°04' W 094°03'0 1.0
2018-Feb-22 09:00N 30°04' W 094°03'3 5.3
2018-Feb-22 08:30N 30°01' W 094°02'3 6.1
2018-Feb-22 08:00N 30°01' W 093°58'3 5.4
2018-Feb-22 07:30N 29°59' W 093°55'3 6.2
2018-Feb-22 07:01N 29°59' W 093°52'3 5.4
2018-Feb-22 06:30N 29°56' W 093°52'3 6.0
2018-Feb-22 06:00N 29°54' W 093°54'3 6.0
2018-Feb-22 05:30N 29°51' W 093°56'3 5.6
2018-Feb-22 05:00N 29°49' W 093°59'1 1.2
2018-Feb-22 04:30N 29°49' W 093°59'1 3.0
2018-Feb-22 04:00N 29°48' W 094°00'3 6.3
2018-Feb-22 03:31N 29°46' W 094°03'3 6.3
2018-Feb-22 03:00N 29°44' W 094°06'3 6.1
2018-Feb-22 02:30N 29°42' W 094°09'3 6.0
2018-Feb-22 02:01N 29°41' W 094°12'3 5.4
2018-Feb-22 01:30N 29°40' W 094°15'3 5.8
2018-Feb-22 01:00N 29°38' W 094°18'3 5.7
2018-Feb-22 00:30N 29°37' W 094°21'4 5.7
2018-Feb-21 23:52N 29°36' W 094°24'1 0.8
2018-Feb-21 22:01N 29°34' W 094°25'0 0.6
2018-Feb-21 21:53N 29°34' W 094°25'29 4.0
2018-Feb-21 14:35N 29°38' W 094°58'1 7.6
2018-Feb-21 14:30N 29°39' W 094°58'4 7.1
2018-Feb-21 14:00N 29°42' W 095°00'6 0.5
2018-Feb-21 03:11N 29°46' W 095°05'4 0.1
2018-Feb-19 18:47N 29°44' W 095°02'1 4.7
2018-Feb-19 18:30N 29°42' W 095°01'2 4.4
2018-Feb-19 18:00N 29°41' W 094°59'1 1.6
2018-Feb-19 17:30N 29°41' W 094°60'1 1.9
2018-Feb-19 17:00N 29°41' W 094°59'3 6.0
2018-Feb-19 16:30N 29°38' W 094°58'3 6.2
2018-Feb-19 15:58N 29°35' W 094°56'3 6.2
2018-Feb-19 15:30N 29°33' W 094°54'3 6.5
2018-Feb-19 14:59N 29°30' W 094°52'3 6.6
2018-Feb-19 14:29N 29°27' W 094°50'3 7.1
2018-Feb-19 14:00N 29°24' W 094°49'6 1.6
2018-Feb-19 10:37N 29°26' W 094°43'0 0.0
2018-Feb-19 10:22N 29°26' W 094°43'0 0.0
2018-Feb-19 09:34N 29°26' W 094°43'0 0.0
2018-Feb-19 09:30N 29°26' W 094°43'0 0.0
2018-Feb-19 08:57N 29°26' W 094°43'0 0.0
2018-Feb-19 08:24N 29°26' W 094°43'0 0.0
2018-Feb-19 07:58N 29°26' W 094°43'0 0.0
2018-Feb-19 07:30N 29°26' W 094°43'0 0.0
2018-Feb-19 06:45N 29°26' W 094°43'0 0.0
2018-Feb-19 05:34N 29°26' W 094°43'0 0.0
2018-Feb-19 05:25N 29°26' W 094°43'0 0.0
2018-Feb-19 05:00N 29°26' W 094°43'0 0.0
2018-Feb-18 07:48N 29°26' W 094°43'0 0.0
2018-Feb-18 07:30N 29°26' W 094°43'14 0.6
2018-Feb-17 08:52N 29°32' W 094°29'0 0.0
2018-Feb-17 08:28N 29°32' W 094°29'0 0.0
2018-Feb-17 06:58N 29°32' W 094°29'0 0.0
2018-Feb-17 06:13N 29°32' W 094°29'0 0.0
2018-Feb-17 05:39N 29°32' W 094°29'0 0.0
2018-Feb-17 05:23N 29°32' W 094°29'0 0.0
2018-Feb-17 05:00N 29°32' W 094°29'0 0.0
2018-Feb-17 04:27N 29°32' W 094°29'0 0.0
2018-Feb-17 03:44N 29°32' W 094°29'0 0.0
2018-Feb-17 03:25N 29°32' W 094°29'0 0.0
2018-Feb-17 02:56N 29°32' W 094°29'0 0.0
2018-Feb-17 02:24N 29°32' W 094°29'0 0.0
2018-Feb-17 01:58N 29°32' W 094°29'0 0.0
2018-Feb-17 01:30N 29°32' W 094°29'0 0.0
2018-Feb-17 00:59N 29°32' W 094°29'0 0.0
2018-Feb-17 00:30N 29°32' W 094°29'0 0.2
2018-Feb-16 23:53N 29°33' W 094°29'2 2.1
2018-Feb-16 23:07N 29°34' W 094°27'1 5.2
2018-Feb-16 23:00N 29°34' W 094°27'0 0.6
2018-Feb-16 22:30N 29°34' W 094°26'1 1.2
2018-Feb-16 22:00N 29°34' W 094°26'0 0.2
2018-Feb-16 21:30N 29°34' W 094°26'2 3.4
2018-Feb-16 20:55N 29°36' W 094°25'2 4.4
2018-Feb-16 20:23N 29°36' W 094°22'1 2.1
2018-Feb-16 19:59N 29°37' W 094°21'3 5.2
2018-Feb-16 19:30N 29°38' W 094°19'3 5.2
2018-Feb-16 19:00N 29°39' W 094°16'3 5.1
2018-Feb-16 18:31N 29°40' W 094°13'3 5.0
2018-Feb-16 18:00N 29°41' W 094°11'2 4.7
2018-Feb-16 17:30N 29°42' W 094°08'2 4.8
2018-Feb-16 17:00N 29°44' W 094°06'2 4.8
2018-Feb-16 16:30N 29°45' W 094°04'2 4.8
2018-Feb-16 16:00N 29°47' W 094°02'2 4.7
2018-Feb-16 15:30N 29°49' W 093°60'1 1.8
2018-Feb-16 15:00N 29°49' W 093°59'0 0.0
2018-Feb-16 14:30N 29°49' W 093°59'0 0.0
2018-Feb-16 14:00N 29°49' W 093°59'0 0.0
2018-Feb-16 13:30N 29°49' W 093°59'0 0.0
2018-Feb-16 13:00N 29°49' W 093°59'2 2.9
2018-Feb-16 12:29N 29°50' W 093°58'1 3.1
2018-Feb-16 12:00N 29°49' W 093°59'0 0.0
2018-Feb-16 11:30N 29°49' W 093°59'0 0.0
2018-Feb-16 11:00N 29°49' W 093°59'0 0.0
2018-Feb-16 10:30N 29°49' W 093°59'0 0.0
2018-Feb-16 10:00N 29°49' W 093°59'0 0.0
2018-Feb-16 09:30N 29°49' W 093°59'0 0.0
2018-Feb-16 09:00N 29°49' W 093°59'0 0.0
2018-Feb-16 08:30N 29°49' W 093°59'0 0.0
2018-Feb-16 08:00N 29°49' W 093°59'0 0.0
2018-Feb-16 07:30N 29°49' W 093°59'0 0.0
2018-Feb-16 07:00N 29°49' W 093°59'0 0.0
2018-Feb-16 06:30N 29°49' W 093°59'0 0.0
2018-Feb-16 06:00N 29°49' W 093°59'0 0.0
2018-Feb-16 05:30N 29°49' W 093°59'0 0.0
2018-Feb-16 04:54N 29°49' W 093°59'0 0.0
2018-Feb-16 04:30N 29°49' W 093°59'0 0.0
2018-Feb-16 04:00N 29°49' W 093°59'0 0.0
2018-Feb-16 03:30N 29°49' W 093°59'0 0.0
2018-Feb-16 03:00N 29°49' W 093°59'0 0.0
2018-Feb-16 02:30N 29°49' W 093°59'0 0.0
2018-Feb-16 02:00N 29°49' W 093°59'0 0.0
2018-Feb-16 01:30N 29°49' W 093°59'0 0.0
2018-Feb-16 01:00N 29°49' W 093°59'0 0.0
2018-Feb-16 00:30N 29°49' W 093°59'0 0.0
2018-Feb-16 00:00N 29°49' W 093°59'0 0.0
2018-Feb-15 23:30N 29°49' W 093°59'0 0.0
2018-Feb-15 23:00N 29°49' W 093°59'0 0.0
2018-Feb-15 22:30N 29°49' W 093°59'0 0.0
2018-Feb-15 22:00N 29°49' W 093°59'0 0.0
2018-Feb-15 21:31N 29°49' W 093°59'1 1.8
2018-Feb-15 21:00N 29°49' W 093°58'1 1.5
2018-Feb-15 20:30N 29°50' W 093°58'0 0.0
2018-Feb-15 20:00N 29°50' W 093°58'0 0.0
2018-Feb-15 19:30N 29°50' W 093°58'1 3.1
2018-Feb-15 19:01N 29°49' W 093°59'0 0.1
2018-Feb-15 18:30N 29°49' W 093°59'0 0.0
2018-Feb-15 18:00N 29°49' W 093°59'0 0.0
2018-Feb-15 17:30N 29°49' W 093°59'0 0.9
2018-Feb-15 17:00N 29°49' W 093°59'0 0.5
2018-Feb-15 16:30N 29°49' W 093°60'0 0.0
2018-Feb-15 16:00N 29°49' W 093°60'0 0.0
2018-Feb-15 15:30N 29°49' W 093°60'0 0.0
2018-Feb-15 15:00N 29°49' W 093°60'0 0.0
2018-Feb-15 14:30N 29°49' W 093°60'0 0.5
2018-Feb-15 14:00N 29°49' W 093°60'0 0.6
2018-Feb-15 13:30N 29°49' W 093°60'0 0.2
2018-Feb-15 13:00N 29°49' W 093°60'0 0.0
2018-Feb-15 12:30N 29°49' W 093°60'0 0.0
2018-Feb-15 12:00N 29°49' W 093°60'0 0.0
2018-Feb-15 11:30N 29°49' W 093°60'0 0.0
2018-Feb-15 11:00N 29°49' W 093°60'0 0.0
2018-Feb-15 10:30N 29°49' W 093°60'0 0.0
2018-Feb-15 10:00N 29°49' W 093°60'0 0.1
2018-Feb-15 09:30N 29°49' W 093°60'0 0.0
2018-Feb-15 09:00N 29°49' W 093°60'0 0.0
2018-Feb-15 08:30N 29°49' W 093°60'0 0.0
2018-Feb-15 08:00N 29°49' W 093°60'0 0.0
2018-Feb-15 07:30N 29°49' W 093°60'0 0.0
2018-Feb-15 07:00N 29°49' W 093°60'0 0.0
2018-Feb-15 06:30N 29°49' W 093°60'0 0.0
2018-Feb-15 06:00N 29°49' W 093°60'0 0.0
2018-Feb-15 05:30N 29°49' W 093°60'0 0.0
2018-Feb-15 05:00N 29°49' W 093°60'0 0.0
2018-Feb-15 04:30N 29°49' W 093°60'0 0.0
2018-Feb-15 04:00N 29°49' W 093°60'0 0.0
2018-Feb-15 03:30N 29°49' W 093°60'0 0.0
2018-Feb-15 03:00N 29°49' W 093°60'0 0.0
2018-Feb-15 02:30N 29°49' W 093°60'0 0.1
2018-Feb-15 02:00N 29°49' W 093°60'0 0.0
2018-Feb-15 01:30N 29°49' W 093°60'0 0.0
2018-Feb-15 01:00N 29°49' W 093°60'0 0.1
2018-Feb-15 00:30N 29°49' W 093°60'0 0.2
2018-Feb-15 00:00N 29°49' W 093°60'2 3.8
2018-Feb-14 23:30N 29°49' W 093°58'3 6.0
2018-Feb-14 23:00N 29°52' W 093°56'3 5.7
2018-Feb-14 22:30N 29°54' W 093°54'3 5.8
2018-Feb-14 22:00N 29°57' W 093°52'2 4.7
2018-Feb-14 21:30N 29°58' W 093°50'3 6.0
2018-Feb-14 21:00N 29°60' W 093°47'3 5.8
2018-Feb-14 20:30N 30°01' W 093°45'3 5.3
2018-Feb-14 20:00N 30°03' W 093°42'3 5.4
2018-Feb-14 19:30N 30°04' W 093°39'3 5.3
2018-Feb-14 18:59N 30°04' W 093°36'2 4.5
2018-Feb-14 18:30N 30°04' W 093°34'1 1.7
2018-Feb-14 18:00N 30°04' W 093°33'0 0.0
2018-Feb-14 17:30N 30°04' W 093°33'0 0.0
2018-Feb-14 17:00N 30°04' W 093°33'0 0.0
2018-Feb-14 16:30N 30°04' W 093°33'0 0.0
2018-Feb-14 15:57N 30°04' W 093°33'0 0.0
2018-Feb-14 15:30N 30°04' W 093°33'0 0.0
2018-Feb-14 15:00N 30°04' W 093°33'0 0.0
2018-Feb-14 14:30N 30°04' W 093°33'0 0.3
2018-Feb-14 14:00N 30°04' W 093°33'0 0.3
2018-Feb-14 13:30N 30°04' W 093°33'0 0.1
2018-Feb-14 13:00N 30°04' W 093°33'0 0.0
2018-Feb-14 12:30N 30°04' W 093°33'0 0.0
2018-Feb-14 12:00N 30°04' W 093°33'0 0.1
2018-Feb-14 11:30N 30°04' W 093°33'0 0.0
2018-Feb-14 11:00N 30°04' W 093°33'0 0.0
2018-Feb-14 10:30N 30°04' W 093°33'0 0.1
2018-Feb-14 09:59N 30°04' W 093°33'0 0.6
2018-Feb-14 09:30N 30°04' W 093°33'2 4.7
2018-Feb-14 09:00N 30°04' W 093°30'2 4.8
2018-Feb-14 08:30N 30°04' W 093°27'2 4.8
2018-Feb-14 08:00N 30°04' W 093°24'2 4.3
2018-Feb-14 07:30N 30°04' W 093°22'2 3.3
2018-Feb-14 07:00N 30°05' W 093°20'2 3.4
2018-Feb-14 06:30N 30°06' W 093°19'1 2.9
2018-Feb-14 06:00N 30°05' W 093°18'1 1.8
2018-Feb-14 05:30N 30°05' W 093°17'0 0.5
2018-Feb-14 05:00N 30°05' W 093°16'0 0.0
2018-Feb-14 04:30N 30°05' W 093°17'1 2.2
2018-Feb-14 04:00N 30°04' W 093°16'2 3.8
2018-Feb-14 03:30N 30°02' W 093°15'2 4.0
2018-Feb-14 03:00N 30°00' W 093°14'2 4.4
2018-Feb-14 02:30N 29°59' W 093°12'2 4.6
2018-Feb-14 02:00N 29°57' W 093°10'2 4.3
2018-Feb-14 01:29N 29°56' W 093°08'2 4.8
2018-Feb-14 01:00N 29°56' W 093°05'  

Dump ship's entire track history